Time;durP1;ratioP1;P1;durP2;ratioP2;P2;SDS_P1;SDS_P2;PMS_P1;PMS_P2;Temp;Humidity;BMP_temperature;BMP_pressure;BME280_temperature;BME280_humidity;BME280_pressure;Samples;Min_cycle;Max_cycle;Signal;HPM_P1;HPM_P2
2022/10/08 00:00:07;;;;;;;9.02;4.00;;;19.70;99.90;;;;;;5112879;28;20507;-71
2022/10/08 00:02:33;;;;;;;8.55;4.30;;;19.70;99.90;;;;;;5112424;28;20103;-72
2022/10/08 00:04:59;;;;;;;9.90;4.70;;;19.70;99.90;;;;;;5113112;28;20031;-71
2022/10/08 00:07:25;;;;;;;8.30;4.20;;;19.70;99.90;;;;;;5113306;28;20031;-72
2022/10/08 00:09:51;;;;;;;8.02;4.28;;;19.60;99.90;;;;;;5112547;28;20030;-71
2022/10/08 00:12:17;;;;;;;9.35;3.97;;;19.70;99.90;;;;;;5112608;28;20047;-71
2022/10/08 00:14:43;;;;;;;9.25;4.72;;;19.70;99.90;;;;;;5112776;28;20073;-71
2022/10/08 00:17:09;;;;;;;10.27;4.55;;;19.70;99.90;;;;;;5112318;28;20092;-70
2022/10/08 00:19:35;;;;;;;9.10;4.65;;;19.60;99.90;;;;;;5110756;28;20030;-71
2022/10/08 00:22:01;;;;;;;9.30;4.20;;;19.70;99.90;;;;;;5112471;28;20103;-71
2022/10/08 00:24:27;;;;;;;9.75;4.15;;;19.60;99.90;;;;;;5112636;28;20024;-72
2022/10/08 00:26:53;;;;;;;8.57;3.95;;;19.70;99.90;;;;;;5112369;28;20020;-71
2022/10/08 00:29:21;;;;;;;11.05;4.10;;;19.70;99.90;;;;;;5113497;28;20061;-71
2022/10/08 00:31:49;;;;;;;8.23;4.38;;;19.70;99.90;;;;;;5113071;28;20023;-72
2022/10/08 00:34:22;;;;;;;7.53;3.55;;;19.60;99.90;;;;;;5112965;28;20034;-71
2022/10/08 00:36:53;;;;;;;6.97;4.05;;;19.60;99.90;;;;;;5113882;28;20047;-72
2022/10/08 00:39:22;;;;;;;6.78;3.70;;;19.60;99.90;;;;;;5113345;28;20528;-72
2022/10/08 00:41:52;;;;;;;7.30;4.00;;;19.60;99.90;;;;;;5112509;28;20123;-71
2022/10/08 00:44:45;;;;;;;5.90;3.20;;;19.70;99.90;;;;;;5112038;28;20459;-71
2022/10/08 00:47:32;;;;;;;8.05;3.40;;;19.70;99.90;;;;;;5111642;28;20076;-72
2022/10/08 00:50:05;;;;;;;8.85;3.53;;;19.80;99.90;;;;;;5112086;28;20074;-71
2022/10/08 00:52:34;;;;;;;5.45;3.47;;;19.90;99.90;;;;;;5112058;28;20027;-73
2022/10/08 00:55:05;;;;;;;8.07;3.47;;;19.90;99.90;;;;;;5111702;28;20087;-72
2022/10/08 00:57:33;;;;;;;6.75;3.33;;;19.90;99.90;;;;;;5112083;28;20175;-71
2022/10/08 01:00:09;;;;;;;7.13;3.83;;;20.00;99.90;;;;;;5111893;28;20057;-71
2022/10/08 01:02:35;;;;;;;8.27;4.20;;;20.00;99.90;;;;;;5111451;28;20379;-72
2022/10/08 01:05:03;;;;;;;9.75;4.28;;;19.90;99.90;;;;;;5111517;28;20069;-72
2022/10/08 01:07:54;;;;;;;7.85;3.72;;;19.90;99.90;;;;;;5111431;28;20028;-71
2022/10/08 01:10:29;;;;;;;5.82;3.72;;;19.80;99.90;;;;;;5111770;28;20027;-71
2022/10/08 01:13:20;;;;;;;6.85;3.95;;;19.80;99.90;;;;;;5111464;28;20042;-71
2022/10/08 01:15:59;;;;;;;7.97;3.90;;;19.80;99.90;;;;;;5111923;28;20034;-71
2022/10/08 01:18:41;;;;;;;7.53;3.72;;;19.70;99.90;;;;;;5111194;28;20081;-72
2022/10/08 01:21:29;;;;;;;8.43;3.92;;;19.70;99.90;;;;;;5111567;28;20056;-71
2022/10/08 01:24:06;;;;;;;9.05;4.20;;;19.70;99.90;;;;;;5111512;28;20032;-71
2022/10/08 01:26:46;;;;;;;7.72;4.28;;;19.80;99.90;;;;;;5111476;28;20028;-71
2022/10/08 01:29:26;;;;;;;10.15;3.90;;;19.80;99.90;;;;;;5111530;28;20448;-71
2022/10/08 01:32:02;;;;;;;9.30;3.65;;;19.70;99.90;;;;;;5111192;28;20020;-71
2022/10/08 01:34:51;;;;;;;9.25;4.70;;;19.70;99.90;;;;;;5111096;28;20035;-71
2022/10/08 01:37:35;;;;;;;12.63;4.63;;;19.70;99.90;;;;;;5111456;28;20032;-71
2022/10/08 01:40:06;;;;;;;9.25;4.63;;;19.70;99.90;;;;;;5111195;28;20046;-72
2022/10/08 01:42:34;;;;;;;8.55;4.70;;;19.70;99.90;;;;;;5111152;28;20023;-71
2022/10/08 01:45:06;;;;;;;10.52;4.60;;;19.60;99.90;;;;;;5111335;28;20020;-71
2022/10/08 01:47:38;;;;;;;8.38;4.78;;;19.50;99.90;;;;;;5111189;28;20024;-71
2022/10/08 01:50:13;;;;;;;8.43;4.50;;;19.50;99.90;;;;;;5109468;28;20366;-72
2022/10/08 01:52:47;;;;;;;7.55;4.45;;;19.40;99.90;;;;;;5111170;28;20041;-72
2022/10/08 01:55:37;;;;;;;9.90;5.22;;;19.40;99.90;;;;;;5111181;28;20099;-71
2022/10/08 01:58:11;;;;;;;9.80;4.93;;;19.40;99.90;;;;;;5110989;28;20049;-71
2022/10/08 02:00:39;;;;;;;10.00;5.63;;;19.30;99.90;;;;;;5114707;28;20031;-71
2022/10/08 02:03:05;;;;;;;8.18;5.18;;;19.30;99.90;;;;;;5115085;28;20058;-71
2022/10/08 02:05:36;;;;;;;10.63;4.90;;;19.30;99.90;;;;;;5114617;28;20053;-71
2022/10/08 02:08:03;;;;;;;7.95;4.38;;;19.30;99.90;;;;;;5114949;27;20030;-71
2022/10/08 02:10:30;;;;;;;10.98;5.32;;;19.20;99.90;;;;;;5114819;28;20023;-71
2022/10/08 02:12:56;;;;;;;;;;;19.20;99.90;;;;;;5115076;27;20045;-70
2022/10/08 02:15:51;;;;;;;9.70;4.60;;;19.20;99.90;;;;;;5114707;28;20329;-70
2022/10/08 02:18:27;;;;;;;8.90;5.00;;;19.10;99.90;;;;;;5114787;28;20080;-70
2022/10/08 02:21:01;;;;;;;9.57;5.00;;;19.10;99.90;;;;;;5114556;28;20027;-71
2022/10/08 02:23:50;;;;;;;11.30;4.93;;;19.10;99.90;;;;;;5114441;27;20416;-70
2022/10/08 02:26:34;;;;;;;10.35;4.43;;;19.10;99.90;;;;;;5114476;28;20114;-71
2022/10/08 02:29:14;;;;;;;10.43;5.10;;;19.10;99.90;;;;;;5114016;28;20066;-70
2022/10/08 02:31:48;;;;;;;13.98;5.10;;;19.10;99.90;;;;;;5113124;28;20032;-70
2022/10/08 02:34:27;;;;;;;10.35;4.82;;;19.20;99.90;;;;;;5114405;28;20136;-71
2022/10/08 02:37:06;;;;;;;7.93;5.10;;;19.10;99.90;;;;;;5112254;28;20024;-70
2022/10/08 02:39:35;;;;;;;10.63;5.03;;;19.10;99.90;;;;;;5113951;28;20024;-72
2022/10/08 02:42:07;;;;;;;11.90;5.22;;;19.10;99.90;;;;;;5112155;28;20030;-71
2022/10/08 02:44:45;;;;;;;9.45;5.00;;;19.10;99.90;;;;;;5113706;28;20098;-71
2022/10/08 02:47:15;;;;;;;7.65;4.97;;;19.10;99.90;;;;;;5112129;28;20420;-70
2022/10/08 02:49:49;;;;;;;8.25;4.70;;;19.10;99.90;;;;;;5113939;28;20012;-70
2022/10/08 02:52:17;;;;;;;10.45;5.18;;;19.00;99.90;;;;;;5113976;28;20116;-70
2022/10/08 02:54:46;;;;;;;10.45;5.55;;;19.00;99.90;;;;;;5113916;28;20023;-71
2022/10/08 02:57:22;;;;;;;13.80;5.45;;;19.00;99.90;;;;;;5113851;28;20119;-70
2022/10/08 02:59:49;;;;;;;10.55;4.95;;;19.00;99.90;;;;;;5112390;28;20027;-70
2022/10/08 03:02:38;;;;;;;12.10;5.28;;;19.00;99.90;;;;;;5114062;27;20089;-72
2022/10/08 03:05:08;;;;;;;7.90;4.85;;;19.00;99.90;;;;;;5113907;28;20071;-71
2022/10/08 03:07:34;;;;;;;7.07;4.40;;;19.00;99.90;;;;;;5114359;28;20067;-71
2022/10/08 03:10:05;;;;;;;13.13;4.57;;;19.00;99.90;;;;;;5113977;28;20471;-70
2022/10/08 03:12:33;;;;;;;7.50;4.57;;;19.00;99.90;;;;;;5114290;28;20150;-70
2022/10/08 03:14:59;;;;;;;9.25;4.78;;;19.00;99.90;;;;;;5114265;28;20113;-70
2022/10/08 03:17:38;;;;;;;13.18;4.80;;;19.00;99.90;;;;;;5113875;28;20036;-70
2022/10/08 03:20:06;;;;;;;8.98;4.47;;;18.90;99.90;;;;;;5113927;28;20015;-71
2022/10/08 03:22:33;;;;;;;7.40;4.10;;;18.80;99.90;;;;;;5112120;28;20050;-70
2022/10/08 03:24:58;;;;;;;;;;;18.80;99.90;;;;;;5112840;28;20037;-70
2022/10/08 03:27:24;;;;;;;8.95;4.45;;;18.80;99.90;;;;;;5114019;28;19912;-70
2022/10/08 03:29:55;;;;;;;9.98;5.50;;;18.70;99.90;;;;;;5113944;28;20584;-70
2022/10/08 03:32:25;;;;;;;7.80;4.80;;;18.70;99.90;;;;;;5112592;28;20019;-71
2022/10/08 03:34:53;;;;;;;9.85;4.85;;;18.70;99.90;;;;;;5113983;28;20420;-70
2022/10/08 03:37:20;;;;;;;9.20;5.38;;;18.80;99.90;;;;;;5114009;28;20105;-70
2022/10/08 03:39:46;;;;;;;16.55;5.07;;;18.70;99.90;;;;;;5114340;28;20497;-71
2022/10/08 03:42:12;;;;;;;8.02;4.93;;;18.70;99.90;;;;;;5114244;28;20106;-70
2022/10/08 03:44:38;;;;;;;6.45;5.13;;;18.70;99.90;;;;;;5114035;28;20410;-71
2022/10/08 03:47:04;;;;;;;8.25;5.00;;;18.70;99.90;;;;;;5114050;28;20073;-71
2022/10/08 03:49:30;;;;;;;7.80;4.60;;;18.70;99.90;;;;;;5113769;28;20076;-71
2022/10/08 03:51:56;;;;;;;15.45;5.28;;;18.70;99.90;;;;;;5114050;28;20186;-70
2022/10/08 03:54:22;;;;;;;8.93;4.68;;;18.70;99.90;;;;;;5113879;28;20031;-71
2022/10/08 03:56:48;;;;;;;9.93;4.70;;;18.70;99.90;;;;;;5113560;28;20028;-71
2022/10/08 03:59:14;;;;;;;8.60;4.50;;;18.70;99.90;;;;;;5113521;28;20435;-72
2022/10/08 04:01:40;;;;;;;6.33;4.30;;;18.70;99.90;;;;;;5113523;28;20324;-72
2022/10/08 04:04:06;;;;;;;9.50;5.27;;;18.70;99.90;;;;;;5113904;28;20269;-72
2022/10/08 04:06:32;;;;;;;8.70;5.23;;;18.70;99.90;;;;;;5113957;28;20250;-72
2022/10/08 04:09:00;;;;;;;8.43;4.80;;;18.70;99.90;;;;;;5113746;28;20273;-72
2022/10/08 04:11:28;;;;;;;8.23;4.93;;;18.60;99.90;;;;;;5113500;28;20028;-71
2022/10/08 04:13:54;;;;;;;11.07;5.03;;;18.60;99.90;;;;;;5113158;28;20032;-72
2022/10/08 04:16:20;;;;;;;6.97;5.30;;;18.60;99.90;;;;;;5113509;28;20110;-71
2022/10/08 04:18:47;;;;;;;8.93;4.68;;;18.70;99.90;;;;;;5114192;28;20031;-71
2022/10/08 04:21:15;;;;;;;8.40;5.47;;;18.70;99.90;;;;;;5113582;28;20180;-71
2022/10/08 04:23:43;;;;;;;11.10;4.88;;;18.70;99.90;;;;;;5113834;28;20032;-70
2022/10/08 04:26:11;;;;;;;8.50;5.22;;;18.60;99.90;;;;;;5114576;28;20405;-71
2022/10/08 04:28:38;;;;;;;9.40;5.00;;;18.70;99.90;;;;;;5114429;28;20055;-71
2022/10/08 04:31:07;;;;;;;6.45;4.53;;;18.70;99.90;;;;;;5114029;28;20023;-71
2022/10/08 04:33:34;;;;;;;10.88;5.43;;;18.70;99.90;;;;;;5114230;28;20059;-71
2022/10/08 04:36:05;;;;;;;9.35;4.90;;;18.70;99.90;;;;;;5113826;28;20031;-71
2022/10/08 04:38:31;;;;;;;8.27;4.75;;;18.60;99.90;;;;;;5112448;28;20035;-72
2022/10/08 04:41:12;;;;;;;10.57;4.85;;;18.60;99.90;;;;;;5114120;28;20023;-71
2022/10/08 04:43:39;;;;;;;7.30;4.20;;;18.60;99.90;;;;;;5113888;28;20019;-72
2022/10/08 04:46:09;;;;;;;8.43;4.35;;;18.60;99.90;;;;;;5113787;28;20019;-72
2022/10/08 04:48:35;;;;;;;9.60;5.03;;;18.60;99.90;;;;;;5113248;28;20368;-71
2022/10/08 04:51:03;;;;;;;7.82;4.85;;;18.60;99.90;;;;;;5113303;28;20510;-71
2022/10/08 04:53:29;;;;;;;9.38;4.70;;;18.60;99.90;;;;;;5113996;28;20036;-71
2022/10/08 04:55:56;;;;;;;10.95;5.53;;;18.60;99.90;;;;;;5114006;28;20434;-72
2022/10/08 04:58:25;;;;;;;9.20;5.22;;;18.50;99.90;;;;;;5113676;28;20032;-71
2022/10/08 05:00:51;;;;;;;8.73;4.97;;;18.50;99.90;;;;;;5113415;28;20414;-71
2022/10/08 05:03:17;;;;;;;11.65;5.82;;;18.60;99.90;;;;;;5113343;28;20425;-71
2022/10/08 05:05:44;;;;;;;8.95;5.25;;;18.50;99.90;;;;;;5113410;28;20536;-71
2022/10/08 05:08:11;;;;;;;10.45;5.10;;;18.50;99.90;;;;;;5113817;28;20023;-71
2022/10/08 05:10:37;;;;;;;;;;;18.60;99.90;;;;;;5113936;28;20051;-71
2022/10/08 05:13:03;;;;;;;9.45;5.32;;;18.60;99.90;;;;;;5113184;28;19927;-72
2022/10/08 05:15:30;;;;;;;;;;;18.60;99.90;;;;;;5113897;28;20085;-71
2022/10/08 05:17:56;;;;;;;7.18;4.45;;;18.60;99.90;;;;;;5113429;28;19954;-71
2022/10/08 05:20:22;;;;;;;8.60;4.70;;;18.70;99.90;;;;;;5113151;28;20416;-71
2022/10/08 05:22:48;;;;;;;8.23;4.97;;;18.70;99.90;;;;;;5113256;28;20020;-71
2022/10/08 05:25:14;;;;;;;10.47;5.77;;;18.70;99.90;;;;;;5112999;28;20062;-71
2022/10/08 05:27:40;;;;;;;9.70;5.45;;;18.70;99.90;;;;;;5112322;28;20300;-72
2022/10/08 05:30:07;;;;;;;7.57;4.43;;;18.80;99.90;;;;;;5112382;28;20090;-71
2022/10/08 05:32:33;;;;;;;8.18;4.90;;;18.80;99.90;;;;;;5113289;28;20024;-71
2022/10/08 05:34:59;;;;;;;9.02;4.95;;;18.70;99.90;;;;;;5116937;28;20111;-71
2022/10/08 05:37:25;;;;;;;8.18;3.90;;;18.80;99.90;;;;;;5116632;28;20050;-71
2022/10/08 05:39:51;;;;;;;9.82;4.65;;;19.20;99.90;;;;;;5117331;28;20020;-72
2022/10/08 05:42:17;;;;;;;5.97;3.78;;;19.80;99.90;;;;;;5116595;28;20104;-72
2022/10/08 05:44:43;;;;;;;8.05;3.47;;;20.60;99.90;;;;;;5116495;28;20517;-72
2022/10/08 05:47:09;;;;;;;10.45;3.70;;;21.30;99.90;;;;;;5116147;28;20027;-71
2022/10/08 05:49:35;;;;;;;7.75;3.33;;;22.00;99.90;;;;;;5116267;28;20019;-72
2022/10/08 05:52:01;;;;;;;6.70;2.55;;;22.50;99.90;;;;;;5116200;28;20111;-72
2022/10/08 05:54:27;;;;;;;5.47;2.53;;;23.30;99.90;;;;;;5115660;28;20055;-72
2022/10/08 05:56:54;;;;;;;6.72;2.60;;;24.00;99.90;;;;;;5115427;28;20498;-72
2022/10/08 05:59:22;;;;;;;6.15;2.28;;;24.50;99.90;;;;;;5115798;28;20504;-74
2022/10/08 06:01:50;;;;;;;6.55;2.30;;;24.90;99.90;;;;;;5115737;28;20035;-73
2022/10/08 06:04:17;;;;;;;6.57;2.47;;;25.30;99.90;;;;;;5115569;28;20034;-73
2022/10/08 06:06:44;;;;;;;5.47;2.35;;;25.30;99.90;;;;;;5115592;28;20050;-72
2022/10/08 06:09:13;;;;;;;9.48;2.45;;;24.90;99.90;;;;;;5114318;28;20111;-71
2022/10/08 06:11:39;;;;;;;4.10;2.10;;;25.00;99.90;;;;;;5115851;28;20019;-73
2022/10/08 06:14:06;;;;;;;;;;;25.30;99.90;;;;;;5116645;27;20032;-72
2022/10/08 06:16:33;;;;;;;6.10;2.30;;;25.80;99.90;;;;;;5115919;28;19970;-73
2022/10/08 06:19:00;;;;;;;4.85;2.00;;;26.40;99.90;;;;;;5116809;28;20028;-73
2022/10/08 06:21:28;;;;;;;6.25;2.17;;;26.60;99.90;;;;;;5116135;28;20031;-73
2022/10/08 06:23:56;;;;;;;4.88;1.90;;;27.40;99.90;;;;;;5115910;28;20030;-71
2022/10/08 06:26:25;;;;;;;6.80;2.08;;;27.50;99.90;;;;;;5116398;28;20023;-70
2022/10/08 06:28:51;;;;;;;7.28;2.05;;;27.90;99.90;;;;;;5115769;28;20100;-72
2022/10/08 06:31:18;;;;;;;6.00;2.13;;;28.10;99.90;;;;;;5116009;28;20028;-73
2022/10/08 06:33:44;;;;;;;4.80;1.90;;;28.60;99.90;;;;;;5116075;28;20058;-73
2022/10/08 06:36:19;;;;;;;6.93;1.80;;;28.80;99.90;;;;;;5115919;28;20474;-73
2022/10/08 06:38:53;;;;;;;7.28;2.20;;;28.80;99.90;;;;;;5116169;28;20101;-73
2022/10/08 06:41:19;;;;;;;4.75;2.10;;;29.20;99.90;;;;;;5116181;28;20460;-73
2022/10/08 06:43:46;;;;;;;6.80;1.80;;;29.40;99.90;;;;;;5115987;28;20028;-73
2022/10/08 06:46:12;;;;;;;6.05;1.73;;;29.90;99.90;;;;;;5115291;28;20024;-73
2022/10/08 06:48:38;;;;;;;3.90;1.65;;;29.60;99.90;;;;;;5115719;28;20026;-73
2022/10/08 06:51:07;;;;;;;;;;;29.70;99.90;;;;;;5116031;28;20051;-72
2022/10/08 06:53:34;;;;;;;7.78;2.47;;;29.70;99.90;;;;;;5115503;28;20278;-74
2022/10/08 06:56:03;;;;;;;12.52;8.40;;;29.50;99.90;;;;;;5115790;28;20107;-73
2022/10/08 06:58:30;;;;;;;5.60;2.30;;;30.10;99.90;;;;;;5115294;28;20607;-73
2022/10/08 07:01:05;;;;;;;18.52;13.07;;;30.20;99.90;;;;;;5115452;28;20028;-73
2022/10/08 07:03:31;;;;;;;15.80;10.82;;;30.00;99.90;;;;;;5115402;28;20020;-74
2022/10/08 07:06:06;;;;;;;10.07;5.78;;;29.40;99.90;;;;;;5115242;28;20054;-73
2022/10/08 07:08:33;;;;;;;15.23;9.03;;;29.30;99.90;;;;;;5115190;28;20080;-73
2022/10/08 07:11:06;;;;;;;14.63;8.02;;;30.10;99.90;;;;;;5115146;28;20322;-73
2022/10/08 07:13:33;;;;;;;9.90;3.80;;;30.30;99.90;;;;;;5115179;28;20020;-74
2022/10/08 07:16:12;;;;;;;7.47;3.83;;;30.10;99.90;;;;;;5114970;28;20096;-73
2022/10/08 07:18:39;;;;;;;11.10;5.70;;;29.40;99.90;;;;;;5113483;28;20028;-73
2022/10/08 07:21:07;;;;;;;8.40;4.25;;;29.00;99.90;;;;;;5114786;28;20011;-73
2022/10/08 07:23:34;;;;;;;8.68;3.85;;;29.00;99.90;;;;;;5115057;28;20336;-73
2022/10/08 07:26:03;;;;;;;9.32;4.82;;;28.70;99.90;;;;;;5114639;28;20047;-73
2022/10/08 07:28:32;;;;;;;15.00;7.38;;;28.70;99.90;;;;;;5112962;28;20120;-74
2022/10/08 07:31:13;;;;;;;8.15;3.40;;;28.50;99.90;;;;;;5114627;28;20092;-71
2022/10/08 07:33:39;;;;;;;10.57;4.40;;;28.00;99.90;;;;;;5114970;28;20023;-73
2022/10/08 07:36:11;;;;;;;14.57;7.47;;;27.60;99.90;;;;;;5114398;28;20032;-72
2022/10/08 07:38:39;;;;;;;7.18;3.80;;;27.10;99.90;;;;;;5114024;28;20028;-72
2022/10/08 07:41:07;;;;;;;10.00;4.82;;;26.70;99.90;;;;;;5114105;28;20115;-72
2022/10/08 07:43:34;;;;;;;6.30;3.33;;;26.40;99.90;;;;;;5113513;28;20138;-72
2022/10/08 07:46:00;;;;;;;8.32;3.15;;;25.80;99.90;;;;;;5112531;28;20023;-72
2022/10/08 07:48:28;;;;;;;7.57;2.95;;;25.80;99.90;;;;;;5114060;28;20028;-72
2022/10/08 07:50:54;;;;;;;6.53;3.38;;;26.00;99.90;;;;;;5113782;27;20033;-73
2022/10/08 07:53:20;;;;;;;6.80;3.30;;;26.20;99.90;;;;;;5114344;28;20110;-72
2022/10/08 07:55:46;;;;;;;7.05;3.20;;;26.40;99.90;;;;;;5113246;28;20034;-72
2022/10/08 07:58:13;;;;;;;7.63;3.03;;;26.70;99.90;;;;;;5112754;28;20046;-74
2022/10/08 08:00:39;;;;;;;7.50;3.38;;;26.60;99.90;;;;;;5113407;28;20106;-72
2022/10/08 08:03:05;;;;;;;11.18;3.38;;;26.60;99.90;;;;;;5113201;27;20035;-72
2022/10/08 08:05:34;;;;;;;8.85;2.97;;;26.70;99.90;;;;;;5113092;28;20064;-73
2022/10/08 08:08:00;;;;;;;6.88;3.63;;;26.90;99.90;;;;;;5113102;28;20024;-72
2022/10/08 08:10:26;;;;;;;6.45;3.38;;;27.20;99.90;;;;;;5112845;28;20058;-72
2022/10/08 08:12:52;;;;;;;7.07;2.72;;;27.40;99.90;;;;;;5113080;28;20024;-72
2022/10/08 08:15:18;;;;;;;11.68;3.13;;;27.40;99.90;;;;;;5113500;28;20016;-73
2022/10/08 08:17:44;;;;;;;6.53;2.03;;;27.50;99.90;;;;;;5114052;28;20035;-73
2022/10/08 08:20:10;;;;;;;10.00;2.50;;;27.60;99.90;;;;;;5113651;28;20103;-73
2022/10/08 08:22:36;;;;;;;7.70;1.80;;;27.70;99.90;;;;;;5113717;28;20062;-73
2022/10/08 08:25:03;;;;;;;5.68;1.90;;;27.70;99.90;;;;;;5113363;28;20410;-71
2022/10/08 08:27:29;;;;;;;7.25;1.98;;;27.30;99.90;;;;;;5113179;28;20050;-71
2022/10/08 08:29:55;;;;;;;9.93;2.60;;;27.20;99.90;;;;;;5113700;28;20015;-72
2022/10/08 08:32:21;;;;;;;14.73;2.55;;;26.80;99.90;;;;;;5113476;28;20027;-72
2022/10/08 08:34:47;;;;;;;9.88;2.80;;;26.30;99.90;;;;;;5113416;28;20012;-73
2022/10/08 08:37:13;;;;;;;8.45;3.15;;;26.30;99.90;;;;;;5113149;28;20357;-72
2022/10/08 08:39:40;;;;;;;8.90;3.05;;;26.30;99.90;;;;;;5113774;28;20023;-72
2022/10/08 08:42:24;;;;;;;5.53;2.30;;;26.30;99.90;;;;;;5113074;28;20027;-73
2022/10/08 08:45:01;;;;;;;8.05;2.70;;;26.70;99.90;;;;;;5113377;28;20515;-72
2022/10/08 08:47:27;;;;;;;4.40;1.85;;;27.10;99.90;;;;;;5111904;28;20028;-72
2022/10/08 08:50:00;;;;;;;8.50;1.90;;;27.50;99.90;;;;;;5111644;28;20023;-72
2022/10/08 08:52:32;;;;;;;6.32;1.80;;;27.80;99.90;;;;;;5112434;28;20028;-72
2022/10/08 08:55:00;;;;;;;6.15;1.60;;;28.00;99.90;;;;;;5112509;28;20020;-72
2022/10/08 08:57:32;;;;;;;6.93;1.70;;;28.20;99.90;;;;;;5112314;28;20039;-72
2022/10/08 09:00:13;;;;;;;5.82;1.67;;;28.20;99.90;;;;;;5111279;28;20133;-73
2022/10/08 09:03:12;;;;;;;5.80;1.80;;;28.10;99.90;;;;;;5112818;28;20027;-72
2022/10/08 09:05:43;;;;;;;6.85;1.67;;;27.80;99.90;;;;;;5112835;28;20019;-72
2022/10/08 09:08:22;;;;;;;5.35;1.42;;;28.00;99.90;;;;;;5112344;28;20043;-72
2022/10/08 09:10:58;;;;;;;5.97;1.80;;;27.40;99.90;;;;;;5112393;28;20032;-72
2022/10/08 09:13:40;;;;;;;;;;;27.50;99.90;;;;;;5113024;28;20024;-72
2022/10/08 09:16:10;;;;;;;8.85;1.60;;;27.60;99.90;;;;;;5113216;28;20340;-72
2022/10/08 09:18:36;;;;;;;6.63;1.67;;;27.80;99.90;;;;;;5113013;28;20067;-72
2022/10/08 09:21:04;;;;;;;7.03;1.75;;;27.90;99.90;;;;;;5113020;28;20069;-72
2022/10/08 09:23:30;;;;;;;6.80;1.70;;;27.60;99.90;;;;;;5112936;28;20027;-71
2022/10/08 09:26:26;;;;;;;14.73;1.75;;;27.40;99.90;;;;;;5112684;28;20107;-72
2022/10/08 09:28:58;;;;;;;6.18;1.38;;;27.30;99.90;;;;;;5112118;28;20085;-73
2022/10/08 09:31:35;;;;;;;4.03;1.42;;;27.20;99.90;;;;;;5112456;28;20031;-73
2022/10/08 09:34:16;;;;;;;6.82;1.50;;;27.00;99.90;;;;;;5112626;28;20110;-72
2022/10/08 09:37:01;;;;;;;6.15;1.60;;;27.30;99.90;;;;;;5110919;28;20086;-72
2022/10/08 09:39:30;;;;;;;10.82;1.88;;;27.50;99.90;;;;;;5112852;28;20081;-72
2022/10/08 09:42:13;;;;;;;9.23;1.60;;;27.50;99.90;;;;;;5112163;28;20016;-72
2022/10/08 09:44:43;;;;;;;5.68;1.63;;;27.20;99.90;;;;;;5112616;28;20034;-73
2022/10/08 09:47:15;;;;;;;5.45;1.70;;;27.10;99.90;;;;;;5112168;28;20024;-72
2022/10/08 09:49:42;;;;;;;6.38;1.50;;;27.30;99.90;;;;;;5112107;28;20039;-71
2022/10/08 09:52:22;;;;;;;4.97;2.10;;;27.30;99.90;;;;;;5112083;28;20055;-72
2022/10/08 09:55:06;;;;;;;5.38;1.40;;;27.40;99.90;;;;;;5112221;28;20039;-72
2022/10/08 09:57:35;;;;;;;8.68;1.50;;;27.50;99.90;;;;;;5112157;28;20031;-72
2022/10/08 10:00:03;;;;;;;5.00;1.45;;;27.50;99.90;;;;;;5112475;28;20102;-71
2022/10/08 10:02:37;;;;;;;6.93;1.73;;;27.50;99.90;;;;;;5111877;28;20072;-71
2022/10/08 10:05:21;;;;;;;3.03;1.40;;;27.60;99.90;;;;;;5110240;28;20068;-71
2022/10/08 10:07:47;;;;;;;7.75;1.90;;;27.80;99.90;;;;;;5110225;28;20028;-71
2022/10/08 10:10:39;;;;;;;7.30;1.70;;;27.70;99.90;;;;;;5110402;28;20019;-71
2022/10/08 10:13:30;;;;;;;5.80;1.50;;;27.50;99.90;;;;;;5111923;28;20024;-72
2022/10/08 10:16:05;;;;;;;7.10;1.80;;;27.40;99.90;;;;;;5112158;28;20075;-71
2022/10/08 10:19:03;;;;;;;8.48;2.58;;;27.30;99.90;;;;;;5110226;28;20044;-72
2022/10/08 10:21:58;;;;;;;5.22;1.70;;;27.30;99.90;;;;;;5114831;28;20111;-72
2022/10/08 10:24:37;;;;;;;4.05;1.50;;;27.10;99.90;;;;;;5116097;28;20075;-72
2022/10/08 10:27:12;;;;;;;4.97;1.45;;;27.00;99.90;;;;;;5115290;28;20048;-72
2022/10/08 10:29:59;;;;;;;4.63;1.40;;;27.10;99.90;;;;;;5115245;28;20036;-72
2022/10/08 10:32:32;;;;;;;7.20;1.35;;;27.30;99.90;;;;;;5115129;28;20019;-72
2022/10/08 10:35:06;;;;;;;5.30;1.50;;;27.30;99.90;;;;;;5113779;28;20099;-73
2022/10/08 10:37:50;;;;;;;9.70;2.03;;;27.20;99.90;;;;;;5115422;28;20046;-72
2022/10/08 10:40:22;;;;;;;3.67;1.50;;;27.30;99.90;;;;;;5115586;28;20022;-71
2022/10/08 10:43:12;;;;;;;4.72;1.50;;;27.00;99.90;;;;;;5114946;28;20161;-72
2022/10/08 10:45:43;;;;;;;4.05;1.63;;;26.90;99.90;;;;;;5115320;28;20034;-72
2022/10/08 10:48:13;;;;;;;6.18;1.42;;;27.10;99.90;;;;;;5115404;28;20450;-72
2022/10/08 10:51:18;;;;;;;5.30;1.60;;;27.30;99.90;;;;;;5115211;28;20577;-72
2022/10/08 10:53:55;;;;;;;5.97;1.40;;;27.50;99.90;;;;;;5115458;28;20062;-73
2022/10/08 10:56:24;;;;;;;4.78;1.50;;;27.80;99.90;;;;;;5115480;28;20051;-72
2022/10/08 10:59:28;;;;;;;5.78;1.73;;;27.60;99.90;;;;;;5115116;28;20038;-72
2022/10/08 11:02:16;;;;;;;4.90;1.30;;;27.60;99.90;;;;;;5114347;28;20351;-72
2022/10/08 11:05:06;;;;;;;4.35;1.50;;;27.60;99.90;;;;;;5113944;28;20073;-73
2022/10/08 11:07:46;;;;;;;4.65;1.50;;;27.50;99.90;;;;;;5112930;28;20103;-73
2022/10/08 11:10:28;;;;;;;6.28;1.60;;;27.60;99.90;;;;;;5113596;28;20027;-71
2022/10/08 11:13:06;;;;;;;4.18;1.70;;;27.80;99.90;;;;;;5114690;28;20035;-73
2022/10/08 11:16:27;;;;;;;7.07;1.50;;;27.70;99.90;;;;;;5114943;28;20046;-72
2022/10/08 11:18:56;;;;;;;6.47;1.88;;;27.30;99.90;;;;;;5052925;28;20144;-72
2022/10/08 11:21:50;;;;;;;7.70;1.50;;;26.80;99.90;;;;;;5052940;28;20040;-72
2022/10/08 11:24:42;;;;;;;4.10;1.60;;;26.90;99.90;;;;;;5052157;28;20087;-72
2022/10/08 11:27:44;;;;;;;6.85;1.50;;;27.00;99.90;;;;;;5035380;28;20052;-72
2022/10/08 11:30:20;;;;;;;6.68;1.60;;;27.40;99.90;;;;;;5054040;28;20083;-72
2022/10/08 11:32:54;;;;;;;;;;;27.50;99.90;;;;;;5052634;28;20477;-71
2022/10/08 11:36:09;;;;;;;5.50;1.63;;;27.30;99.90;;;;;;5052017;28;19905;-71
2022/10/08 11:38:41;;;;;;;;;;;27.70;99.90;;;;;;5052868;28;20037;-71
2022/10/08 11:41:15;;;;;;;3.55;1.40;;;27.50;99.90;;;;;;5052061;28;20053;-71
2022/10/08 11:43:58;;;;;;;6.30;1.92;;;27.50;99.90;;;;;;5035230;28;20029;-72
2022/10/08 11:46:28;;;;;;;7.05;1.70;;;27.60;99.90;;;;;;5034742;28;20033;-72
2022/10/08 11:49:10;;;;;;;6.00;1.80;;;27.30;99.90;;;;;;5050863;28;20063;-72
2022/10/08 11:51:38;;;;;;;5.40;1.60;;;27.40;99.90;;;;;;5050824;28;20064;-72
2022/10/08 11:54:47;;;;;;;5.15;1.60;;;27.80;99.90;;;;;;5081985;28;20085;-72
2022/10/08 11:57:23;;;;;;;6.53;1.33;;;27.80;99.90;;;;;;5113323;28;20039;-72
2022/10/08 11:59:59;;;;;;;4.22;1.50;;;27.80;99.90;;;;;;5113672;28;20019;-73
2022/10/08 12:02:36;;;;;;;7.85;1.55;;;27.70;99.90;;;;;;5114119;28;20027;-72
2022/10/08 12:05:40;;;;;;;5.60;1.35;;;27.70;99.90;;;;;;5113532;27;20122;-73
2022/10/08 12:08:06;;;;;;;5.53;1.70;;;27.50;99.90;;;;;;5113933;28;20019;-72
2022/10/08 12:10:37;;;;;;;6.25;1.85;;;27.30;99.90;;;;;;5114162;28;20356;-71
2022/10/08 12:13:12;;;;;;;6.57;1.73;;;27.30;99.90;;;;;;5113430;28;20047;-71
2022/10/08 12:15:39;;;;;;;6.10;1.67;;;27.30;99.90;;;;;;5113536;28;20015;-71
2022/10/08 12:18:19;;;;;;;4.53;1.35;;;27.50;99.90;;;;;;5114235;28;20048;-71
2022/10/08 12:20:45;;;;;;;4.03;1.40;;;27.40;99.90;;;;;;5114645;28;20026;-72
2022/10/08 12:23:20;;;;;;;3.78;1.50;;;27.40;99.90;;;;;;5114535;28;20393;-70
2022/10/08 12:25:47;;;;;;;5.53;1.50;;;27.50;99.90;;;;;;5114697;28;20023;-71
2022/10/08 12:28:20;;;;;;;6.97;1.60;;;27.30;99.90;;;;;;5113956;28;20048;-71
2022/10/08 12:30:47;;;;;;;5.90;1.63;;;27.40;99.90;;;;;;5113947;28;20023;-70
2022/10/08 12:33:14;;;;;;;3.47;1.30;;;27.40;99.90;;;;;;5113956;28;20020;-71
2022/10/08 12:36:06;;;;;;;3.17;1.50;;;27.50;99.90;;;;;;5112491;28;20023;-71
2022/10/08 12:38:49;;;;;;;4.38;1.40;;;27.60;99.90;;;;;;5114215;28;20035;-71
2022/10/08 12:41:24;;;;;;;8.38;1.80;;;27.90;99.90;;;;;;5113951;28;20413;-71
2022/10/08 12:44:08;;;;;;;3.15;1.40;;;27.80;99.90;;;;;;5113642;28;20046;-70
2022/10/08 12:46:42;;;;;;;5.85;1.70;;;27.70;99.90;;;;;;5114225;28;20031;-71
2022/10/08 12:49:15;;;;;;;6.13;1.63;;;27.80;99.90;;;;;;5114162;28;20031;-70
2022/10/08 12:51:59;;;;;;;6.30;1.98;;;27.80;99.90;;;;;;5113960;28;20023;-71
2022/10/08 12:54:28;;;;;;;5.65;1.67;;;27.50;99.90;;;;;;5114072;28;20369;-71
2022/10/08 12:56:54;;;;;;;10.40;1.70;;;27.60;99.90;;;;;;5112143;28;20019;-71
2022/10/08 12:59:23;;;;;;;4.32;1.50;;;27.60;99.90;;;;;;5114023;28;20027;-70
2022/10/08 13:01:50;;;;;;;4.20;1.70;;;27.50;99.90;;;;;;5113489;28;20015;-71
2022/10/08 13:04:22;;;;;;;4.15;1.50;;;27.60;99.90;;;;;;5113653;28;20085;-71
2022/10/08 13:06:51;;;;;;;5.45;1.50;;;27.40;99.90;;;;;;5112219;28;20102;-72
2022/10/08 13:09:32;;;;;;;6.38;1.60;;;27.60;99.90;;;;;;5112998;28;20048;-71
2022/10/08 13:12:00;;;;;;;5.25;1.58;;;27.50;99.90;;;;;;5113520;28;20443;-71
2022/10/08 13:14:29;;;;;;;5.43;1.50;;;27.70;99.90;;;;;;5113145;27;20100;-71